Fairfield, NE (68938)

20:44 CDT le 18 septembre 2014 (GMT -0500)
RAWS RAINWATER BASIN NE US | Change Station
CLOSE
Current Station
Stations météorologiques personnelles
Location: Inland, NE
Altitude: 1820 ft
Stations météo à proximité

Alt. 1820 ft 40.57 °N, 98.15 °W | Updated 48 minutes ago

Ciel dégagé
Ciel dégagé
67 ° F
Paraît 67 ° F
N
6
Vent Variable Vent de ESE
Gusts 9.0 mph

Aujourd'hui
Haut(e) -- | Bas -- ° F
--% Risque de précip.
Hier
Haut(e) -- | Bas -- ° F
Precip. -- pouce
7:16 AM 7:36 PM
Lune descendante, 23% visible
Pression 29.87 pouce
Visibilité 10.0 Miles terrestres
Nuages Ciel dégagé
Point de rosée 65 ° F
Humidité 94%
Précipitations 0.00 pouce
Profondeur de la couche neigeuse Non disponible.
UV 0 sur 12
Pollen 5.60 sur 12
Qualité de l'air Non disponible.
Flu Activity Non disponible.
METAR KHSI 190053Z AUTO 12007KT 10SM CLR 22/17 A2990 RMK AO2 SLP113 T02170167

More Conditions Fewer Conditions

Pression 29.87 pouce
Visibilité 10.0 Miles terrestres
Nuages Ciel dégagé
Point de rosée 65 ° F
Humidité 94%
Précipitations 0.00 pouce
Profondeur de la couche neigeuse Non disponible.
UV 0 sur 12
Pollen 5.60 sur 12
Qualité de l'air Non disponible.
Flu Activity Non disponible.
METAR KHSI 190053Z AUTO 12007KT 10SM CLR 22/17 A2990 RMK AO2 SLP113 T02170167

More Conditions Fewer Conditions

10-Day Weather Forecast

Almanac

Astronomie

Sep. 18, 2014 Lever Coucher
Temps réel 07:16 CDT 19:36 CDT
Crépuscule civil 06:48 CDT 20:03 CDT
Crépuscule nautique 06:16 CDT 20:35 CDT
Crépuscule astronomique 05:43 CDT 21:08 CDT
Lune 02:08 CDT (9/18) 16:29 CDT (9/18)
Durée de lumière visible 13h 14m
Longueur du jour
12h 20m
Tomorrow will be 2m 39s shorter.
Lune descendante, 23% of the Moon is Illuminated
Aujourd'hui
Lune descendante
Sep 24
Nouveau
Oct 1
Premier quartier
Oct 8
Pleine lune
Oct 15
Dernier quartier

Extrêmes aujourd'hui

State Highs State Lows

Community

WunderPhotos

Upload Photos

1,754,529 Photos téléchargées !

Nearby

Épaisseur de neige

Station Depth Altitude
Pas de nouvelles chutes de neige

Activité sismique

Ville Distance Mag. Time & Date
No recent earthquake activity has been reported nearby.
Minimum magnitude displayed is 2.5.

Températures des eaux côtières

Lieu Température
Aucun rapport de station

Stations météo à proximité